Aniara — SKJC — position and weather

sailwx.info

Track history (hours):
 
Tides and Currents Weather Stations Pressure Air Temp Water Temp Dewpoint Dewpoint Depression Visibility Wind Speed Wind Dir Waves Ship Positions

Aniara

Last reported at 2014-Oct-27 16:33 UTC. Time now 2014-Oct-31 23:50 UTC.
Position N 38°24' W 031°14'.

Length 232 m; draft 10.1 m.

Type: Cargo ship. MMSI: 266282000.

Date/timePositionNaut miles runAvg speedWind from/ knotsBaromVisibWave heightAir tempDewpointWater temp
2014-Oct-27 16:33N 38°24' W 031°14'3316.3
2014-Oct-27 14:33N 38°41' W 030°39'1616.3
2014-Oct-27 13:33N 38°50' W 030°21'1616.2
2014-Oct-27 12:33N 38°58' W 030°04'1616.2
2014-Oct-27 11:33N 39°08' W 029°47'1616.4
2014-Oct-27 10:34N 39°18' W 029°31'1717.2
2014-Oct-27 09:33N 39°29' W 029°13'1716.6
2014-Oct-27 08:33N 39°39' W 028°56'1716.9
2014-Oct-27 07:33N 39°50' W 028°39'1716.8
2014-Oct-27 06:33N 40°00' W 028°21'1816.7
2014-Oct-27 05:30N 40°11' W 028°03'19616.2
2014-Oct-26 17:23N 42°07' W 024°33'  
2014-Oct-24 05:33N 49°51' W 003°25'1515.3
2014-Oct-24 04:34N 49°56' W 003°02'7218.1
2014-Oct-24 00:34N 50°28' W 001°21'1717.0
2014-Oct-23 23:33N 50°37' W 000°59'1211.6
2014-Oct-23 22:34N 50°46' W 001°12'10 9.9
2014-Oct-23 21:33N 50°52' W 001°23'1 0.7
2014-Oct-23 20:32N 50°53' W 001°24'0 0.0
2014-Oct-23 19:32N 50°53' W 001°24'0 0.0
2014-Oct-23 18:32N 50°53' W 001°24'0 0.0
2014-Oct-23 17:32N 50°53' W 001°24'0 0.0
2014-Oct-23 16:32N 50°53' W 001°24'0 0.0
2014-Oct-23 15:29N 50°53' W 001°24'0 0.0
2014-Oct-23 14:32N 50°53' W 001°24'0 0.0
2014-Oct-23 13:32N 50°53' W 001°24'0 0.0
2014-Oct-23 12:32N 50°53' W 001°24'0 0.0
2014-Oct-23 11:32N 50°53' W 001°24'0 0.0
2014-Oct-23 10:32N 50°53' W 001°24'0 0.0
2014-Oct-23 09:32N 50°53' W 001°24'0 0.0
2014-Oct-23 08:32N 50°53' W 001°24'0 0.0
2014-Oct-23 07:32N 50°53' W 001°24'0 0.3
2014-Oct-23 06:32N 50°53' W 001°24'6 6.0
2014-Oct-23 05:34N 50°48' W 001°18'1212.4
2014-Oct-23 04:33N 50°43' W 000°60'8 7.7
2014-Oct-23 03:33N 50°39' W 000°50'8 8.4
2014-Oct-23 02:33N 50°37' W 000°37'1010.2
2014-Oct-23 01:33N 50°34' W 000°21'1211.8
2014-Oct-23 00:33N 50°32' W 000°03'1313.5
2014-Oct-22 23:34N 50°35' E 000°17'1312.6
2014-Oct-22 22:33N 50°40' E 000°36'1212.1
2014-Oct-22 21:33N 50°46' E 000°52'1212.0
2014-Oct-22 20:33N 50°53' E 001°08'1211.9
2014-Oct-22 19:34N 51°01' E 001°21'1312.9
2014-Oct-22 18:33N 51°09' E 001°38'1312.6
2014-Oct-22 17:33N 51°18' E 001°51'1110.7
2014-Oct-22 16:33N 51°23' E 002°06'1312.9
2014-Oct-22 15:33N 51°22' E 002°27'1414.0
2014-Oct-22 14:33N 51°25' E 002°49'1514.9
2014-Oct-22 13:33N 51°22' E 003°12'2 2.3
2014-Oct-22 12:33N 51°19' E 003°13'0 0.5
2014-Oct-22 11:33N 51°19' E 003°14'0 0.0
2014-Oct-22 10:33N 51°19' E 003°14'0 0.0
2014-Oct-22 09:30N 51°19' E 003°14'0 0.0
2014-Oct-22 08:33N 51°19' E 003°14'0 0.0
2014-Oct-22 07:33N 51°19' E 003°14'0 0.0
2014-Oct-22 06:33N 51°19' E 003°14'0 0.0
2014-Oct-22 05:30N 51°19' E 003°14'0 0.0
2014-Oct-22 04:30N 51°19' E 003°14'0 0.0
2014-Oct-22 03:33N 51°19' E 003°14'0 0.0
2014-Oct-22 02:33N 51°19' E 003°14'0 0.0
2014-Oct-22 01:33N 51°19' E 003°14'0 0.0
2014-Oct-22 00:30N 51°19' E 003°14'0 0.0
2014-Oct-21 23:24N 51°19' E 003°14'0 0.0
2014-Oct-21 22:24N 51°19' E 003°14'0 0.0
2014-Oct-21 21:30N 51°19' E 003°14'0 0.0
2014-Oct-21 20:33N 51°19' E 003°14'0 0.0
2014-Oct-21 19:24N 51°19' E 003°14'0 0.0
2014-Oct-21 18:24N 51°19' E 003°14'0 0.0
2014-Oct-21 17:33N 51°19' E 003°14'0 0.0
2014-Oct-21 16:30N 51°19' E 003°14'0 0.0
2014-Oct-21 15:33N 51°19' E 003°14'0 0.0
2014-Oct-21 14:30N 51°19' E 003°14'0 0.0
2014-Oct-21 13:33N 51°19' E 003°14'0 0.0
2014-Oct-21 12:33N 51°19' E 003°14'0 0.0
2014-Oct-21 11:33N 51°19' E 003°14'0 0.0
2014-Oct-21 10:33N 51°19' E 003°14'0 0.0
2014-Oct-21 09:33N 51°19' E 003°14'0 0.0
2014-Oct-21 08:33N 51°19' E 003°14'0 0.0
2014-Oct-21 07:33N 51°19' E 003°14'0 0.0
2014-Oct-21 06:33N 51°19' E 003°14'0 0.0
2014-Oct-21 05:33N 51°19' E 003°14'0 0.0
2014-Oct-21 04:33N 51°19' E 003°14'0 0.0
2014-Oct-21 03:33N 51°19' E 003°14'0 0.0
2014-Oct-21 02:33N 51°19' E 003°14'0 0.0
2014-Oct-21 01:33N 51°19' E 003°14'0 0.0
2014-Oct-21 00:30N 51°19' E 003°14'0 0.0
2014-Oct-20 23:30N 51°19' E 003°14'0 0.0
2014-Oct-20 22:30N 51°19' E 003°14'0 0.0
2014-Oct-20 21:24N 51°19' E 003°14'0 0.0
2014-Oct-20 20:33N 51°19' E 003°14'0 0.0
2014-Oct-20 19:30N 51°19' E 003°14'0 0.0
2014-Oct-20 18:33N 51°19' E 003°14'0 0.0
2014-Oct-20 17:30N 51°19' E 003°14'0 0.0
2014-Oct-20 16:33N 51°19' E 003°14'0 0.0
2014-Oct-20 15:33N 51°19' E 003°14'0 0.0
2014-Oct-20 14:33N 51°19' E 003°14'0 0.0
2014-Oct-20 13:30N 51°19' E 003°14'0 0.0
2014-Oct-20 12:30N 51°19' E 003°14'0 0.0
2014-Oct-20 11:33N 51°19' E 003°14'0 0.0
2014-Oct-20 10:33N 51°19' E 003°14'0 0.0
2014-Oct-20 09:33N 51°19' E 003°13'1 1.2
2014-Oct-20 08:33N 51°20' E 003°13'1010.4
2014-Oct-20 07:33N 51°25' E 002°58'1010.3
2014-Oct-20 06:33N 51°27' E 002°42'14015.4
2014-Oct-19 21:27N 53°27' E 004°37'1516.7
2014-Oct-19 20:33N 53°34' E 005°00'1717.3
2014-Oct-19 19:33N 53°40' E 005°27'1716.8
2014-Oct-19 18:33N 53°44' E 005°54'5516.5
2014-Oct-19 15:13N 53°58' E 007°25'1015.0
2014-Oct-19 14:33N 53°57' E 007°42'1413.9
2014-Oct-19 13:33N 53°51' E 008°03'1918.6
2014-Oct-19 12:34N 53°38' E 008°26'6 5.9
2014-Oct-19 11:34N 53°34' E 008°33'0 0.5
2014-Oct-19 10:31N 53°35' E 008°33'0 0.0
2014-Oct-19 09:31N 53°35' E 008°33'0 0.0
2014-Oct-19 08:31N 53°35' E 008°33'0 0.0
2014-Oct-19 07:31N 53°35' E 008°33'0 0.0
2014-Oct-19 06:31N 53°35' E 008°33'0 0.0
2014-Oct-19 05:31N 53°35' E 008°33'0 0.0
2014-Oct-19 04:31N 53°35' E 008°33'0 0.0
2014-Oct-19 03:31N 53°35' E 008°33'0 0.0
2014-Oct-19 02:31N 53°35' E 008°33'0 0.0
2014-Oct-19 01:31N 53°35' E 008°33'0 0.0
2014-Oct-19 00:31N 53°35' E 008°33'0 0.0
2014-Oct-18 23:31N 53°35' E 008°33'0 0.0
2014-Oct-18 22:31N 53°35' E 008°33'0 0.0
2014-Oct-18 21:31N 53°35' E 008°33'0 0.0
2014-Oct-18 20:31N 53°35' E 008°33'0 0.0
2014-Oct-18 19:31N 53°35' E 008°33'0 0.0
2014-Oct-18 18:31N 53°35' E 008°33'0 0.0
2014-Oct-18 17:31N 53°35' E 008°33'0 0.0
2014-Oct-18 16:31N 53°35' E 008°33'0 0.0
2014-Oct-18 15:31N 53°35' E 008°33'0 0.0
2014-Oct-18 14:31N 53°35' E 008°33'0 0.0
2014-Oct-18 13:31N 53°35' E 008°33'0 0.0
2014-Oct-18 12:31N 53°35' E 008°33'0 0.0
2014-Oct-18 11:31N 53°35' E 008°33'0 0.0
2014-Oct-18 10:31N 53°35' E 008°33'0 0.0
2014-Oct-18 09:31N 53°35' E 008°33'0 0.0
2014-Oct-18 08:31N 53°35' E 008°33'0 0.0
2014-Oct-18 07:31N 53°35' E 008°33'0 0.0
2014-Oct-18 06:31N 53°35' E 008°33'0 0.0
2014-Oct-18 05:31N 53°35' E 008°33'0 0.0
2014-Oct-18 04:31N 53°35' E 008°33'0 0.0
2014-Oct-18 03:31N 53°35' E 008°33'0 0.0
2014-Oct-18 02:31N 53°35' E 008°33'0 0.0
2014-Oct-18 01:31N 53°35' E 008°33'0 0.0
2014-Oct-18 00:31N 53°35' E 008°33'0 0.0
2014-Oct-17 23:31N 53°35' E 008°33'0 0.0
2014-Oct-17 22:31N 53°35' E 008°33'0 0.0
2014-Oct-17 21:31N 53°35' E 008°33'0 0.0
2014-Oct-17 20:31N 53°35' E 008°33'0 0.0
2014-Oct-17 19:31N 53°35' E 008°33'0 0.0
2014-Oct-17 18:31N 53°35' E 008°33'0 0.0
2014-Oct-17 17:31N 53°35' E 008°33'  
Track history (hours):
 
Tides and Currents Weather Stations Pressure Air Temp Water Temp Dewpoint Dewpoint Depression Visibility Wind Speed Wind Dir Waves Ship Positions

Aniara

Last reported at 2014-Oct-27 16:33 UTC. Time now 2014-Oct-31 23:50 UTC.
Position N 38°24' W 031°14'.

Length 232 m; draft 10.1 m.

Type: Cargo ship. MMSI: 266282000.

Date/timePositionNaut miles runAvg speedWind from/ knotsBaromVisibWave heightAir tempDewpointWater temp
2014-Oct-27 16:33N 38°24' W 031°14'3316.3
2014-Oct-27 14:33N 38°41' W 030°39'1616.3
2014-Oct-27 13:33N 38°50' W 030°21'1616.2
2014-Oct-27 12:33N 38°58' W 030°04'1616.2
2014-Oct-27 11:33N 39°08' W 029°47'1616.4
2014-Oct-27 10:34N 39°18' W 029°31'1717.2
2014-Oct-27 09:33N 39°29' W 029°13'1716.6
2014-Oct-27 08:33N 39°39' W 028°56'1716.9
2014-Oct-27 07:33N 39°50' W 028°39'1716.8
2014-Oct-27 06:33N 40°00' W 028°21'1816.7
2014-Oct-27 05:30N 40°11' W 028°03'19616.2
2014-Oct-26 17:23N 42°07' W 024°33'  
2014-Oct-24 05:33N 49°51' W 003°25'1515.3
2014-Oct-24 04:34N 49°56' W 003°02'7218.1
2014-Oct-24 00:34N 50°28' W 001°21'1717.0
2014-Oct-23 23:33N 50°37' W 000°59'1211.6
2014-Oct-23 22:34N 50°46' W 001°12'10 9.9
2014-Oct-23 21:33N 50°52' W 001°23'1 0.7
2014-Oct-23 20:32N 50°53' W 001°24'0 0.0
2014-Oct-23 19:32N 50°53' W 001°24'0 0.0
2014-Oct-23 18:32N 50°53' W 001°24'0 0.0
2014-Oct-23 17:32N 50°53' W 001°24'0 0.0
2014-Oct-23 16:32N 50°53' W 001°24'0 0.0
2014-Oct-23 15:29N 50°53' W 001°24'0 0.0
2014-Oct-23 14:32N 50°53' W 001°24'0 0.0
2014-Oct-23 13:32N 50°53' W 001°24'0 0.0
2014-Oct-23 12:32N 50°53' W 001°24'0 0.0
2014-Oct-23 11:32N 50°53' W 001°24'0 0.0
2014-Oct-23 10:32N 50°53' W 001°24'0 0.0
2014-Oct-23 09:32N 50°53' W 001°24'0 0.0
2014-Oct-23 08:32N 50°53' W 001°24'0 0.0
2014-Oct-23 07:32N 50°53' W 001°24'0 0.3
2014-Oct-23 06:32N 50°53' W 001°24'6 6.0
2014-Oct-23 05:34N 50°48' W 001°18'1212.4
2014-Oct-23 04:33N 50°43' W 000°60'8 7.7
2014-Oct-23 03:33N 50°39' W 000°50'8 8.4
2014-Oct-23 02:33N 50°37' W 000°37'1010.2
2014-Oct-23 01:33N 50°34' W 000°21'1211.8
2014-Oct-23 00:33N 50°32' W 000°03'1313.5
2014-Oct-22 23:34N 50°35' E 000°17'1312.6
2014-Oct-22 22:33N 50°40' E 000°36'1212.1
2014-Oct-22 21:33N 50°46' E 000°52'1212.0
2014-Oct-22 20:33N 50°53' E 001°08'1211.9
2014-Oct-22 19:34N 51°01' E 001°21'1312.9
2014-Oct-22 18:33N 51°09' E 001°38'1312.6
2014-Oct-22 17:33N 51°18' E 001°51'1110.7
2014-Oct-22 16:33N 51°23' E 002°06'1312.9
2014-Oct-22 15:33N 51°22' E 002°27'1414.0
2014-Oct-22 14:33N 51°25' E 002°49'1514.9
2014-Oct-22 13:33N 51°22' E 003°12'2 2.3
2014-Oct-22 12:33N 51°19' E 003°13'0 0.5
2014-Oct-22 11:33N 51°19' E 003°14'0 0.0
2014-Oct-22 10:33N 51°19' E 003°14'0 0.0
2014-Oct-22 09:30N 51°19' E 003°14'0 0.0
2014-Oct-22 08:33N 51°19' E 003°14'0 0.0
2014-Oct-22 07:33N 51°19' E 003°14'0 0.0
2014-Oct-22 06:33N 51°19' E 003°14'0 0.0
2014-Oct-22 05:30N 51°19' E 003°14'0 0.0
2014-Oct-22 04:30N 51°19' E 003°14'0 0.0
2014-Oct-22 03:33N 51°19' E 003°14'0 0.0
2014-Oct-22 02:33N 51°19' E 003°14'0 0.0
2014-Oct-22 01:33N 51°19' E 003°14'0 0.0
2014-Oct-22 00:30N 51°19' E 003°14'0 0.0
2014-Oct-21 23:24N 51°19' E 003°14'0 0.0
2014-Oct-21 22:24N 51°19' E 003°14'0 0.0
2014-Oct-21 21:30N 51°19' E 003°14'0 0.0
2014-Oct-21 20:33N 51°19' E 003°14'0 0.0
2014-Oct-21 19:24N 51°19' E 003°14'0 0.0
2014-Oct-21 18:24N 51°19' E 003°14'0 0.0
2014-Oct-21 17:33N 51°19' E 003°14'0 0.0
2014-Oct-21 16:30N 51°19' E 003°14'0 0.0
2014-Oct-21 15:33N 51°19' E 003°14'0 0.0
2014-Oct-21 14:30N 51°19' E 003°14'0 0.0
2014-Oct-21 13:33N 51°19' E 003°14'0 0.0
2014-Oct-21 12:33N 51°19' E 003°14'0 0.0
2014-Oct-21 11:33N 51°19' E 003°14'0 0.0
2014-Oct-21 10:33N 51°19' E 003°14'0 0.0
2014-Oct-21 09:33N 51°19' E 003°14'0 0.0
2014-Oct-21 08:33N 51°19' E 003°14'0 0.0
2014-Oct-21 07:33N 51°19' E 003°14'0 0.0
2014-Oct-21 06:33N 51°19' E 003°14'0 0.0
2014-Oct-21 05:33N 51°19' E 003°14'0 0.0
2014-Oct-21 04:33N 51°19' E 003°14'0 0.0
2014-Oct-21 03:33N 51°19' E 003°14'0 0.0
2014-Oct-21 02:33N 51°19' E 003°14'0 0.0
2014-Oct-21 01:33N 51°19' E 003°14'0 0.0
2014-Oct-21 00:30N 51°19' E 003°14'0 0.0
2014-Oct-20 23:30N 51°19' E 003°14'0 0.0
2014-Oct-20 22:30N 51°19' E 003°14'0 0.0
2014-Oct-20 21:24N 51°19' E 003°14'0 0.0
2014-Oct-20 20:33N 51°19' E 003°14'0 0.0
2014-Oct-20 19:30N 51°19' E 003°14'0 0.0
2014-Oct-20 18:33N 51°19' E 003°14'0 0.0
2014-Oct-20 17:30N 51°19' E 003°14'0 0.0
2014-Oct-20 16:33N 51°19' E 003°14'0 0.0
2014-Oct-20 15:33N 51°19' E 003°14'0 0.0
2014-Oct-20 14:33N 51°19' E 003°14'0 0.0
2014-Oct-20 13:30N 51°19' E 003°14'0 0.0
2014-Oct-20 12:30N 51°19' E 003°14'0 0.0
2014-Oct-20 11:33N 51°19' E 003°14'0 0.0
2014-Oct-20 10:33N 51°19' E 003°14'0 0.0
2014-Oct-20 09:33N 51°19' E 003°13'1 1.2
2014-Oct-20 08:33N 51°20' E 003°13'1010.4
2014-Oct-20 07:33N 51°25' E 002°58'1010.3
2014-Oct-20 06:33N 51°27' E 002°42'14015.4
2014-Oct-19 21:27N 53°27' E 004°37'1516.7
2014-Oct-19 20:33N 53°34' E 005°00'1717.3
2014-Oct-19 19:33N 53°40' E 005°27'1716.8
2014-Oct-19 18:33N 53°44' E 005°54'5516.5
2014-Oct-19 15:13N 53°58' E 007°25'1015.0
2014-Oct-19 14:33N 53°57' E 007°42'1413.9
2014-Oct-19 13:33N 53°51' E 008°03'1918.6
2014-Oct-19 12:34N 53°38' E 008°26'6 5.9
2014-Oct-19 11:34N 53°34' E 008°33'0 0.5
2014-Oct-19 10:31N 53°35' E 008°33'0 0.0
2014-Oct-19 09:31N 53°35' E 008°33'0 0.0
2014-Oct-19 08:31N 53°35' E 008°33'0 0.0
2014-Oct-19 07:31N 53°35' E 008°33'0 0.0
2014-Oct-19 06:31N 53°35' E 008°33'0 0.0
2014-Oct-19 05:31N 53°35' E 008°33'0 0.0
2014-Oct-19 04:31N 53°35' E 008°33'0 0.0
2014-Oct-19 03:31N 53°35' E 008°33'0 0.0
2014-Oct-19 02:31N 53°35' E 008°33'0 0.0
2014-Oct-19 01:31N 53°35' E 008°33'0 0.0
2014-Oct-19 00:31N 53°35' E 008°33'0 0.0
2014-Oct-18 23:31N 53°35' E 008°33'0 0.0
2014-Oct-18 22:31N 53°35' E 008°33'0 0.0
2014-Oct-18 21:31N 53°35' E 008°33'0 0.0
2014-Oct-18 20:31N 53°35' E 008°33'0 0.0
2014-Oct-18 19:31N 53°35' E 008°33'0 0.0
2014-Oct-18 18:31N 53°35' E 008°33'0 0.0
2014-Oct-18 17:31N 53°35' E 008°33'0 0.0
2014-Oct-18 16:31N 53°35' E 008°33'0 0.0
2014-Oct-18 15:31N 53°35' E 008°33'0 0.0
2014-Oct-18 14:31N 53°35' E 008°33'0 0.0
2014-Oct-18 13:31N 53°35' E 008°33'0 0.0
2014-Oct-18 12:31N 53°35' E 008°33'0 0.0
2014-Oct-18 11:31N 53°35' E 008°33'0 0.0
2014-Oct-18 10:31N 53°35' E 008°33'0 0.0
2014-Oct-18 09:31N 53°35' E 008°33'0 0.0
2014-Oct-18 08:31N 53°35' E 008°33'0 0.0
2014-Oct-18 07:31N 53°35' E 008°33'0 0.0
2014-Oct-18 06:31N 53°35' E 008°33'0 0.0
2014-Oct-18 05:31N 53°35' E 008°33'0 0.0
2014-Oct-18 04:31N 53°35' E 008°33'0 0.0
2014-Oct-18 03:31N 53°35' E 008°33'0 0.0
2014-Oct-18 02:31N 53°35' E 008°33'0 0.0
2014-Oct-18 01:31N 53°35' E 008°33'0 0.0
2014-Oct-18 00:31N 53°35' E 008°33'0 0.0
2014-Oct-17 23:31N 53°35' E 008°33'0 0.0
2014-Oct-17 22:31N 53°35' E 008°33'0 0.0
2014-Oct-17 21:31N 53°35' E 008°33'0 0.0
2014-Oct-17 20:31N 53°35' E 008°33'0 0.0
2014-Oct-17 19:31N 53°35' E 008°33'0 0.0
2014-Oct-17 18:31N 53°35' E 008°33'0 0.0
2014-Oct-17 17:31N 53°35' E 008°33'  

Dump ship's entire track history